createdAt,value
2019-02-17T00:01:34.086Z,100492.16
2019-02-17T00:04:00.421Z,100507.08
2019-02-17T00:06:26.294Z,100499.61
2019-02-17T00:08:52.133Z,100512.74
2019-02-17T00:11:18.300Z,100512.40
2019-02-17T00:13:44.179Z,100507.97
2019-02-17T00:16:10.128Z,100511.97
2019-02-17T00:18:36.231Z,100532.55
2019-02-17T00:21:02.200Z,100525.09
2019-02-17T00:23:28.073Z,100537.38
2019-02-17T00:25:54.104Z,100544.31
2019-02-17T00:28:19.949Z,100552.61
2019-02-17T00:30:45.835Z,100560.47
2019-02-17T00:33:11.818Z,100545.53
2019-02-17T00:35:37.701Z,100541.97
2019-02-17T00:38:03.671Z,100535.91
2019-02-17T00:40:29.737Z,100549.58
2019-02-17T00:42:55.594Z,100554.45
2019-02-17T00:45:21.548Z,100554.08
2019-02-17T00:47:47.776Z,100560.22
2019-02-17T00:50:13.597Z,100569.50
2019-02-17T00:52:39.480Z,100587.55
2019-02-17T00:55:05.919Z,100594.62
2019-02-17T00:57:31.797Z,100604.24
2019-02-17T00:59:57.667Z,100599.89
2019-02-17T01:02:23.722Z,100611.31
2019-02-17T01:04:49.594Z,100612.67
2019-02-17T01:07:15.481Z,100619.31
2019-02-17T01:09:41.463Z,100622.78
2019-02-17T01:12:07.316Z,100634.15
2019-02-17T01:14:33.161Z,100642.92
2019-02-17T01:16:59.221Z,100648.64
2019-02-17T01:19:25.236Z,100664.05
2019-02-17T01:21:51.093Z,100685.17
2019-02-17T01:24:17.136Z,100679.91
2019-02-17T01:26:43.005Z,100683.91
2019-02-17T01:29:08.877Z,100698.40
2019-02-17T01:31:36.776Z,100706.30
2019-02-17T01:34:09.408Z,100704.98
2019-02-17T01:36:35.356Z,100720.36
2019-02-17T01:39:01.375Z,100718.70
2019-02-17T01:41:27.212Z,100723.53
2019-02-17T01:43:53.068Z,100728.41
2019-02-17T01:46:19.227Z,100735.52
2019-02-17T01:48:45.125Z,100748.70
2019-02-17T01:51:11.073Z,100754.01
2019-02-17T01:53:37.049Z,100762.39
2019-02-17T01:56:02.900Z,100774.24
2019-02-17T01:58:28.912Z,100776.92
2019-02-17T02:00:54.988Z,100789.66
2019-02-17T02:03:20.961Z,100796.77
2019-02-17T02:05:46.841Z,100795.02
2019-02-17T02:08:12.795Z,100809.19
2019-02-17T02:10:38.680Z,100826.80
2019-02-17T02:13:04.675Z,100834.30
2019-02-17T02:15:30.709Z,100843.55
2019-02-17T02:17:56.573Z,100857.64
2019-02-17T02:20:22.655Z,100866.91
2019-02-17T02:22:48.683Z,100870.89
2019-02-17T02:25:14.567Z,100862.55
2019-02-17T02:27:40.420Z,100883.63
2019-02-17T02:30:10.689Z,100879.72
2019-02-17T02:32:36.695Z,100886.77
2019-02-17T02:35:02.742Z,100882.43
2019-02-17T02:37:28.826Z,100897.39
2019-02-17T02:39:54.740Z,100905.38
2019-02-17T02:42:20.841Z,100915.95
2019-02-17T02:44:48.638Z,100927.35
2019-02-17T02:47:14.520Z,100938.77
2019-02-17T02:49:40.389Z,100939.23
2019-02-17T02:52:06.451Z,100950.25
2019-02-17T02:54:32.305Z,100963.02
2019-02-17T02:56:58.177Z,100962.17
2019-02-17T02:59:24.124Z,100963.96
2019-02-17T03:01:50.085Z,100974.02
2019-02-17T03:04:15.969Z,100982.43
2019-02-17T03:06:43.894Z,100983.27
2019-02-17T03:09:09.771Z,100991.69
2019-02-17T03:11:35.613Z,100997.86
2019-02-17T03:14:01.566Z,101008.90
2019-02-17T03:16:27.484Z,101009.78
2019-02-17T03:18:53.341Z,101012.92
2019-02-17T03:21:21.118Z,101015.16
2019-02-17T03:23:46.965Z,101021.33
2019-02-17T03:26:12.996Z,101020.48
2019-02-17T03:28:38.987Z,101028.38
2019-02-17T03:31:04.949Z,101037.16
2019-02-17T03:33:30.833Z,101033.64
2019-02-17T03:35:56.860Z,101048.56
2019-02-17T03:38:22.724Z,101047.69
2019-02-17T03:40:48.593Z,101055.98
2019-02-17T03:43:14.605Z,101065.67
2019-02-17T03:45:40.484Z,101073.09
2019-02-17T03:48:06.421Z,101074.41
2019-02-17T03:50:32.501Z,101080.11
2019-02-17T03:52:58.358Z,101089.77
2019-02-17T03:55:24.236Z,101093.31
2019-02-17T03:57:50.372Z,101100.33
2019-02-17T04:00:17.419Z,101113.45
2019-02-17T04:02:43.481Z,101112.17
2019-02-17T04:05:09.443Z,101132.36
2019-02-17T04:07:35.312Z,101137.63
2019-02-17T04:10:01.289Z,101130.61
2019-02-17T04:12:27.336Z,101131.48
2019-02-17T04:14:53.193Z,101131.92
2019-02-17T04:17:19.186Z,101128.87
2019-02-17T04:19:45.778Z,101135.93
2019-02-17T04:22:12.467Z,101144.27
2019-02-17T04:24:38.320Z,101139.44
2019-02-17T04:27:04.390Z,101157.02
2019-02-17T04:29:30.255Z,101162.25
2019-02-17T04:31:56.135Z,101162.25
2019-02-17T04:34:22.183Z,101164.01
2019-02-17T04:36:48.035Z,101175.85
2019-02-17T04:39:13.935Z,101180.71
2019-02-17T04:41:39.986Z,101181.14
2019-02-17T04:44:05.945Z,101187.32
2019-02-17T04:46:31.837Z,101182.90
2019-02-17T04:48:57.988Z,101186.00
2019-02-17T04:51:23.954Z,101193.40
2019-02-17T04:53:49.895Z,101197.34
2019-02-17T04:56:15.856Z,101208.34
2019-02-17T04:58:41.713Z,101208.38
2019-02-17T05:01:07.584Z,101227.24
2019-02-17T05:03:33.672Z,101225.95
2019-02-17T05:05:59.544Z,101236.08
2019-02-17T05:08:25.404Z,101242.21
2019-02-17T05:10:51.478Z,101253.21
2019-02-17T05:13:17.368Z,101254.55
2019-02-17T05:15:43.224Z,101257.22
2019-02-17T05:18:09.223Z,101264.26
2019-02-17T05:20:35.226Z,101269.11
2019-02-17T05:23:01.137Z,101282.27
2019-02-17T05:25:27.163Z,101282.27
2019-02-17T05:27:53.133Z,101291.48
2019-02-17T05:30:18.990Z,101298.09
2019-02-17T05:32:44.950Z,101305.52
2019-02-17T05:35:10.938Z,101317.86
2019-02-17T05:37:36.787Z,101323.61
2019-02-17T05:40:03.667Z,101315.30
2019-02-17T05:42:29.557Z,101313.12
2019-02-17T05:44:55.416Z,101325.44
2019-02-17T05:47:21.445Z,101334.26
2019-02-17T05:49:47.336Z,101339.98
2019-02-17T05:52:13.214Z,101350.95
2019-02-17T05:54:39.263Z,101345.25
2019-02-17T05:57:05.197Z,101367.22
2019-02-17T05:59:31.046Z,101362.85
2019-02-17T06:01:57.004Z,101374.30
2019-02-17T06:04:22.875Z,101373.89
2019-02-17T06:06:48.720Z,101377.39
2019-02-17T06:09:14.780Z,101382.70
2019-02-17T06:11:40.666Z,101391.95
2019-02-17T06:14:06.541Z,101391.95
2019-02-17T06:16:32.509Z,101402.06
2019-02-17T06:18:58.371Z,101399.89
2019-02-17T06:21:24.225Z,101408.25
2019-02-17T06:23:51.344Z,101417.48
2019-02-17T06:26:17.211Z,101430.16
2019-02-17T06:28:43.088Z,101431.48
2019-02-17T06:31:14.357Z,101431.50
2019-02-17T06:33:36.751Z,101436.37
2019-02-17T06:36:02.633Z,101446.02
2019-02-17T06:38:28.661Z,101447.81
2019-02-17T06:40:54.531Z,101446.95
2019-02-17T06:43:20.492Z,101460.53
2019-02-17T06:45:46.520Z,101467.61
2019-02-17T06:48:12.374Z,101473.37
2019-02-17T06:50:38.251Z,101478.70
2019-02-17T06:53:04.201Z,101485.73
2019-02-17T06:55:34.625Z,101488.80
2019-02-17T06:58:00.607Z,101499.36
2019-02-17T07:00:28.465Z,101498.94
2019-02-17T07:02:54.466Z,101501.59
2019-02-17T07:05:37.166Z,101504.65
2019-02-17T07:08:03.071Z,101507.31
2019-02-17T07:10:29.040Z,101513.94
2019-02-17T07:12:55.082Z,101528.86
2019-02-17T07:15:20.995Z,101473.98
2019-02-17T07:17:46.840Z,101529.76
2019-02-17T07:20:12.797Z,101544.22
2019-02-17T07:22:38.669Z,101549.05
2019-02-17T07:25:04.771Z,101550.39
2019-02-17T07:27:30.814Z,101551.70
2019-02-17T07:29:56.750Z,101558.72
2019-02-17T07:32:22.688Z,101556.54
2019-02-17T07:34:48.669Z,101561.83
2019-02-17T07:37:14.539Z,101568.41
2019-02-17T07:39:40.399Z,101573.67
2019-02-17T07:42:06.455Z,101578.09
2019-02-17T07:44:32.454Z,101578.95
2019-02-17T07:46:58.304Z,101578.95
2019-02-17T07:49:24.281Z,101586.81
2019-02-17T07:51:50.173Z,101592.52
2019-02-17T07:54:16.038Z,101597.77
2019-02-17T07:56:41.971Z,101597.77
2019-02-17T07:59:07.852Z,101607.83
2019-02-17T08:01:33.726Z,101603.03
2019-02-17T08:03:59.724Z,101609.59
2019-02-17T08:06:25.625Z,101618.79
2019-02-17T08:08:51.479Z,101628.84
2019-02-17T08:11:17.457Z,101641.98
2019-02-17T08:13:43.462Z,101650.75
2019-02-17T08:16:09.425Z,101651.66
2019-02-17T08:18:35.451Z,101652.52
2019-02-17T08:21:01.338Z,101652.97
2019-02-17T08:23:27.233Z,101662.16
2019-02-17T08:25:53.242Z,101614.64
2019-02-17T08:28:19.113Z,101665.62
2019-02-17T08:30:44.960Z,101666.52
2019-02-17T08:33:10.964Z,101663.45
2019-02-17T08:35:36.820Z,101673.08
2019-02-17T08:38:03.460Z,101682.70
2019-02-17T08:40:29.529Z,101689.72
2019-02-17T08:42:55.419Z,101691.45
2019-02-17T08:45:21.381Z,101698.00
2019-02-17T08:47:47.332Z,101698.44
2019-02-17T08:50:13.209Z,101707.20
2019-02-17T08:52:39.061Z,101713.77
2019-02-17T08:55:06.559Z,101716.39
2019-02-17T08:57:32.528Z,101709.38
2019-02-17T08:59:58.369Z,101710.69
2019-02-17T09:02:24.385Z,101724.69
2019-02-17T09:04:50.287Z,101731.23
2019-02-17T09:07:16.136Z,101735.59
2019-02-17T09:09:42.088Z,101740.81
2019-02-17T09:12:07.946Z,101753.05
2019-02-17T09:14:33.824Z,101751.28
2019-02-17T09:16:59.918Z,101751.70
2019-02-17T09:19:25.772Z,101767.45
2019-02-17T09:21:51.629Z,101766.58
2019-02-17T09:24:17.590Z,101779.27
2019-02-17T09:26:43.460Z,101772.66
2019-02-17T09:29:09.327Z,101776.58
2019-02-17T09:31:35.263Z,101777.41
2019-02-17T09:34:01.260Z,101776.52
2019-02-17T09:36:27.122Z,101780.42
2019-02-17T09:38:53.121Z,101787.81
2019-02-17T09:41:19.033Z,101790.87
2019-02-17T09:43:45.653Z,101792.16
2019-02-17T09:46:11.813Z,101793.42
2019-02-17T09:48:37.687Z,101800.40
2019-02-17T09:51:03.675Z,101800.84
2019-02-17T09:53:29.594Z,101802.95
2019-02-17T09:55:55.482Z,101798.11
2019-02-17T09:58:21.360Z,101800.25
2019-02-17T10:00:47.374Z,101814.67
2019-02-17T10:03:13.379Z,101815.98
2019-02-17T10:05:39.350Z,101816.36
2019-02-17T10:08:05.278Z,101820.70
2019-02-17T10:10:31.241Z,101827.70
2019-02-17T10:12:57.140Z,101840.81
2019-02-17T10:15:23.140Z,101843.83
2019-02-17T10:17:48.978Z,101850.37
2019-02-17T10:20:14.823Z,101842.44
2019-02-17T10:22:40.899Z,101842.40
2019-02-17T10:25:07.364Z,101848.95
2019-02-17T10:27:33.247Z,101814.92
2019-02-17T10:29:59.236Z,101857.69
2019-02-17T10:32:25.105Z,101864.67
2019-02-17T10:34:50.993Z,101861.58
2019-02-17T10:37:16.950Z,101863.31
2019-02-17T10:39:42.811Z,101861.56
2019-02-17T10:42:08.667Z,101861.13
2019-02-17T10:44:34.795Z,101875.60
2019-02-17T10:47:00.763Z,101874.69
2019-02-17T10:49:26.657Z,101877.28
2019-02-17T10:51:52.731Z,101880.78
2019-02-17T10:54:18.593Z,101881.20
2019-02-17T10:56:44.468Z,101878.97
2019-02-17T10:59:10.562Z,101876.75
2019-02-17T11:01:36.416Z,101878.03
2019-02-17T11:04:06.215Z,101885.48
2019-02-17T11:06:32.275Z,101885.45
2019-02-17T11:08:58.160Z,101900.33
2019-02-17T11:11:24.110Z,101907.31
2019-02-17T11:13:50.171Z,101913.00
2019-02-17T11:16:16.015Z,101911.20
2019-02-17T11:18:41.907Z,101913.38
2019-02-17T11:21:07.973Z,101913.77
2019-02-17T11:23:33.838Z,101920.79
2019-02-17T11:25:59.732Z,101926.03
2019-02-17T11:28:25.821Z,101923.35
2019-02-17T11:30:51.676Z,101921.11
2019-02-17T11:33:17.526Z,101921.96
2019-02-17T11:35:43.508Z,101930.70
2019-02-17T11:38:09.482Z,101930.68
2019-02-17T11:40:35.581Z,101928.44
2019-02-17T11:43:01.619Z,101929.32
2019-02-17T11:45:27.485Z,101933.71
2019-02-17T11:47:53.360Z,101933.71
2019-02-17T11:50:19.354Z,101935.91
2019-02-17T11:52:45.279Z,101931.03
2019-02-17T11:55:13.056Z,101938.93
2019-02-17T11:57:39.283Z,101931.91
2019-02-17T12:00:07.170Z,101938.48
2019-02-17T12:02:33.139Z,101946.37
2019-02-17T12:04:59.165Z,101948.97
2019-02-17T12:07:25.129Z,101952.48
2019-02-17T12:09:50.986Z,101964.36
2019-02-17T12:12:16.944Z,101960.86
2019-02-17T12:14:42.804Z,101965.70
2019-02-17T12:17:08.699Z,101965.27
2019-02-17T12:19:34.675Z,101970.55
2019-02-17T12:22:02.433Z,101971.83
2019-02-17T12:24:30.185Z,101977.55
2019-02-17T12:27:03.924Z,101973.60
2019-02-17T12:29:31.691Z,101979.73
2019-02-17T12:31:57.942Z,101981.05
2019-02-17T12:34:24.016Z,101983.65
2019-02-17T12:36:49.988Z,101986.72
2019-02-17T12:39:15.947Z,101985.78
2019-02-17T12:41:41.996Z,101994.55
2019-02-17T12:44:07.838Z,101998.91
2019-02-17T12:46:33.813Z,102003.28
2019-02-17T12:48:59.902Z,102007.70
2019-02-17T12:51:25.889Z,102004.59
2019-02-17T12:53:51.777Z,102003.25
2019-02-17T12:56:17.844Z,102000.59
2019-02-17T12:58:43.690Z,102004.98
2019-02-17T13:01:09.546Z,102002.30
2019-02-17T13:03:35.621Z,102000.08
2019-02-17T13:06:01.562Z,102007.07
2019-02-17T13:08:27.439Z,102000.90
2019-02-17T13:10:53.431Z,102005.25
2019-02-17T13:13:19.272Z,102007.45
2019-02-17T13:15:45.147Z,102011.83
2019-02-17T13:18:11.188Z,102020.22
2019-02-17T13:20:37.049Z,102019.34
2019-02-17T13:23:03.055Z,102025.89
2019-02-17T13:25:29.087Z,102034.68
2019-02-17T13:27:55.055Z,102034.19
2019-02-17T13:30:22.194Z,102036.80
2019-02-17T13:32:48.391Z,102040.73
2019-02-17T13:35:14.287Z,102044.67
2019-02-17T13:37:40.261Z,102040.69
2019-02-17T13:40:12.638Z,102043.78
2019-02-17T13:42:38.504Z,102043.31
2019-02-17T13:45:08.843Z,102043.83
2019-02-17T13:47:34.738Z,102042.94
2019-02-17T13:50:00.589Z,102047.80
2019-02-17T13:52:26.514Z,102049.56
2019-02-17T13:54:52.539Z,102048.66
2019-02-17T13:57:18.412Z,102052.59
2019-02-17T13:59:44.570Z,102057.44
2019-02-17T14:02:10.523Z,102066.66
2019-02-17T14:04:36.383Z,102058.28
2019-02-17T14:07:02.553Z,102063.96
2019-02-17T14:09:28.594Z,102064.84
2019-02-17T14:11:54.459Z,102063.09
2019-02-17T14:14:20.533Z,102068.42
2019-02-17T14:16:46.996Z,102068.02
2019-02-17T14:19:12.845Z,102067.59
2019-02-17T14:21:38.731Z,102073.73
2019-02-17T14:24:04.669Z,102075.04
2019-02-17T14:26:30.594Z,102072.42
2019-02-17T14:28:56.478Z,102074.63
2019-02-17T14:31:22.413Z,102072.00
2019-02-17T14:33:48.276Z,102071.61
2019-02-17T14:36:14.179Z,102070.72
2019-02-17T14:38:40.217Z,102072.95
2019-02-17T14:41:06.087Z,102081.30
2019-02-17T14:43:32.074Z,102076.92
2019-02-17T14:45:58.054Z,102079.98
2019-02-17T14:48:23.920Z,102083.98
2019-02-17T14:50:49.916Z,102084.02
2019-02-17T14:53:16.230Z,102088.00
2019-02-17T14:55:42.097Z,102102.08
2019-02-17T14:58:08.081Z,102099.08
2019-02-17T15:00:34.449Z,102093.83
2019-02-17T15:03:00.320Z,102085.59
2019-02-17T15:05:26.183Z,102097.84
2019-02-17T15:07:52.145Z,102096.98
2019-02-17T15:10:18.208Z,102097.01
2019-02-17T15:12:44.075Z,102104.52
2019-02-17T15:15:10.835Z,102103.67
2019-02-17T15:17:36.706Z,102111.63
2019-02-17T15:20:03.686Z,102121.79
2019-02-17T15:22:29.945Z,102115.25
2019-02-17T15:24:55.772Z,102109.14
2019-02-17T15:27:21.685Z,102107.43
2019-02-17T15:29:47.938Z,102111.86
2019-02-17T15:32:13.784Z,102128.64
2019-02-17T15:34:39.838Z,102135.80
2019-02-17T15:37:05.932Z,102138.96
2019-02-17T15:39:31.805Z,102140.78
2019-02-17T15:41:57.660Z,102143.48
2019-02-17T15:44:23.704Z,102150.98
2019-02-17T15:46:49.568Z,102157.13
2019-02-17T15:49:15.478Z,102156.30
2019-02-17T15:51:41.429Z,102157.64
2019-02-17T15:54:07.280Z,102159.83
2019-02-17T15:56:33.153Z,102155.04
2019-02-17T15:58:59.201Z,102158.54
2019-02-17T16:01:25.114Z,102155.52
2019-02-17T16:03:50.988Z,102163.45
2019-02-17T16:06:17.158Z,102155.61
2019-02-17T16:08:43.223Z,102152.11
2019-02-17T16:11:09.105Z,102147.72
2019-02-17T16:13:35.178Z,102141.61
2019-02-17T16:16:01.027Z,102145.57
2019-02-17T16:18:26.928Z,102143.80
2019-02-17T16:20:52.937Z,102149.96
2019-02-17T16:23:18.830Z,102144.70
2019-02-17T16:25:44.791Z,102146.05
2019-02-17T16:28:10.841Z,102147.80
2019-02-17T16:30:36.828Z,102145.19
2019-02-17T16:33:02.793Z,102151.36
2019-02-17T16:35:28.832Z,102149.60
2019-02-17T16:37:54.699Z,102153.15
2019-02-17T16:40:20.583Z,102163.69
2019-02-17T16:42:46.881Z,102156.23
2019-02-17T16:45:13.156Z,102158.45
2019-02-17T16:47:40.171Z,102158.87
2019-02-17T16:50:07.974Z,102149.69
2019-02-17T16:52:33.826Z,102160.62
2019-02-17T16:54:59.805Z,102168.52
2019-02-17T16:57:25.777Z,102171.15
2019-02-17T16:59:51.644Z,102168.94
2019-02-17T17:02:17.542Z,102173.34
2019-02-17T17:04:48.491Z,102170.23
2019-02-17T17:07:11.274Z,102181.17
2019-02-17T17:09:37.161Z,102176.80
2019-02-17T17:12:03.799Z,102175.06
2019-02-17T17:14:29.840Z,102178.53
2019-02-17T17:16:55.941Z,102178.99
2019-02-17T17:19:21.984Z,102177.67
2019-02-17T17:21:47.825Z,102182.04
2019-02-17T17:24:13.828Z,102179.41
2019-02-17T17:26:39.781Z,102178.52
2019-02-17T17:29:05.650Z,102187.28
2019-02-17T17:31:31.656Z,102182.45
2019-02-17T17:33:57.624Z,102184.22
2019-02-17T17:36:23.500Z,102178.50
2019-02-17T17:38:49.413Z,102178.06
2019-02-17T17:41:15.455Z,102188.98
2019-02-17T17:43:41.324Z,102179.35
2019-02-17T17:46:07.224Z,102176.71
2019-02-17T17:48:33.478Z,102174.50
2019-02-17T17:50:59.354Z,102178.42
2019-02-17T17:53:25.202Z,102182.35
2019-02-17T17:55:51.236Z,102184.08
2019-02-17T17:58:17.102Z,102181.86
2019-02-17T18:00:43.550Z,102173.98
2019-02-17T18:03:09.774Z,102173.12
2019-02-17T18:05:35.780Z,102177.05
2019-02-17T18:08:01.662Z,102176.16
2019-02-17T18:10:27.773Z,102178.77
2019-02-17T18:12:53.676Z,102175.70
2019-02-17T18:15:19.510Z,102175.23
2019-02-17T18:17:54.012Z,102175.21
2019-02-17T18:20:13.247Z,102182.64
2019-02-17T18:22:39.212Z,102194.84
2019-02-17T18:25:06.105Z,102187.83
2019-02-17T18:27:32.070Z,102186.91
2019-02-17T18:29:57.926Z,102186.47
2019-02-17T18:32:23.888Z,102197.81
2019-02-17T18:34:49.880Z,102194.34
2019-02-17T18:37:15.728Z,102195.19
2019-02-17T18:39:41.766Z,102191.70
2019-02-17T18:42:07.736Z,102200.86
2019-02-17T18:44:33.619Z,102198.22
2019-02-17T18:46:59.597Z,102191.64
2019-02-17T18:49:25.458Z,102182.47
2019-02-17T18:51:51.335Z,102180.27
2019-02-17T18:54:17.374Z,102181.57
2019-02-17T18:56:43.207Z,102181.56
2019-02-17T18:59:10.771Z,102184.16
2019-02-17T19:01:36.901Z,102171.03
2019-02-17T19:04:02.850Z,102164.01
2019-02-17T19:06:28.714Z,102177.57
2019-02-17T19:08:54.733Z,102167.06
2019-02-17T19:11:20.586Z,102059.16
2019-02-17T19:13:46.548Z,102167.48
2019-02-17T19:16:12.554Z,102158.72
2019-02-17T19:18:38.442Z,102165.25
2019-02-17T19:21:04.296Z,102161.28
2019-02-17T19:23:30.279Z,102160.85
2019-02-17T19:25:56.233Z,102160.85
2019-02-17T19:28:22.088Z,102174.84
2019-02-17T19:30:48.215Z,102172.22
2019-02-17T19:33:14.187Z,102179.61
2019-02-17T19:35:42.293Z,102174.37
2019-02-17T19:38:07.866Z,102180.48
2019-02-17T19:40:33.721Z,102183.54
2019-02-17T19:42:59.636Z,102183.54
2019-02-17T19:45:25.681Z,102175.66
2019-02-17T19:47:51.535Z,102181.38
2019-02-17T19:50:17.449Z,102175.25
2019-02-17T19:52:43.883Z,102175.25
2019-02-17T19:55:10.315Z,102184.44
2019-02-17T19:57:36.288Z,102184.88
2019-02-17T20:00:03.062Z,102183.55
2019-02-17T20:02:33.727Z,102177.02
2019-02-17T20:05:07.480Z,102184.05
2019-02-17T20:07:33.447Z,102172.67
2019-02-17T20:09:59.300Z,102174.87
2019-02-17T20:12:25.324Z,102177.03
2019-02-17T20:14:51.190Z,102177.03
2019-02-17T20:17:17.175Z,102172.25
2019-02-17T20:19:43.173Z,102174.88
2019-02-17T20:22:09.228Z,102182.28
2019-02-17T20:24:35.081Z,102170.91
2019-02-17T20:27:01.592Z,102180.97
2019-02-17T20:29:27.480Z,102183.58
2019-02-17T20:31:53.478Z,102185.35
2019-02-17T20:34:19.472Z,102179.22
2019-02-17T20:36:45.351Z,102178.78
2019-02-17T20:39:11.227Z,102179.66
2019-02-17T20:41:37.256Z,102173.13
2019-02-17T20:44:03.113Z,102169.19
2019-02-17T20:46:29.092Z,102179.25
2019-02-17T20:48:55.236Z,102167.88
2019-02-17T20:51:21.118Z,102164.41
2019-02-17T20:53:47.093Z,102162.20
2019-02-17T20:56:13.100Z,102157.83
2019-02-17T20:58:38.948Z,102163.91
2019-02-17T21:01:05.035Z,102165.22
2019-02-17T21:03:31.173Z,102159.12
2019-02-17T21:05:57.053Z,102153.89
2019-02-17T21:08:23.091Z,102151.72
2019-02-17T21:10:49.179Z,102151.30
2019-02-17T21:13:15.019Z,102155.65
2019-02-17T21:15:40.961Z,102145.17
2019-02-17T21:18:07.173Z,102151.73
2019-02-17T21:20:34.138Z,102146.06
2019-02-17T21:23:00.006Z,102146.92
2019-02-17T21:25:26.029Z,102146.92
2019-02-17T21:27:51.865Z,102143.46
2019-02-17T21:30:18.018Z,102138.23
2019-02-17T21:32:44.437Z,102133.42
2019-02-17T21:35:11.426Z,102133.44
2019-02-17T21:37:37.282Z,102127.78
2019-02-17T21:40:04.751Z,102121.66
2019-02-17T21:42:30.623Z,102120.36
2019-02-17T21:44:56.485Z,102112.50
2019-02-17T21:47:22.513Z,102108.58
2019-02-17T21:49:48.368Z,102111.66
2019-02-17T21:52:14.265Z,102108.59
2019-02-17T21:54:40.230Z,102106.86
2019-02-17T21:57:06.221Z,102099.00
2019-02-17T21:59:32.154Z,102097.70
2019-02-17T22:01:58.116Z,102088.11
2019-02-17T22:04:24.115Z,102084.61
2019-02-17T22:06:50.008Z,102078.94
2019-02-17T22:09:16.003Z,102075.87
2019-02-17T22:11:41.872Z,102069.77
2019-02-17T22:14:07.753Z,102056.67
2019-02-17T22:16:34.000Z,102053.17
2019-02-17T22:18:59.829Z,102046.63
2019-02-17T22:21:25.686Z,102053.19
2019-02-17T22:23:51.631Z,102047.52
2019-02-17T22:26:17.492Z,102042.70
2019-02-17T22:28:43.376Z,102045.80
2019-02-17T22:31:09.631Z,102038.36
2019-02-17T22:33:35.509Z,102030.91
2019-02-17T22:36:01.408Z,102023.05
2019-02-17T22:38:27.422Z,102019.13
2019-02-17T22:40:53.397Z,102015.64
2019-02-17T22:43:19.384Z,102003.84
2019-02-17T22:45:45.415Z,102001.64
2019-02-17T22:48:11.279Z,101998.14
2019-02-17T22:50:37.165Z,102003.39
2019-02-17T22:53:03.294Z,101999.03
2019-02-17T22:55:29.167Z,101979.34
2019-02-17T22:57:55.030Z,101965.34
2019-02-17T23:00:24.427Z,101965.80
2019-02-17T23:02:50.369Z,101967.11
2019-02-17T23:05:16.357Z,101977.19
2019-02-17T23:07:42.503Z,101970.62
2019-02-17T23:10:09.803Z,101949.59
2019-02-17T23:12:35.663Z,101956.61
2019-02-17T23:15:01.799Z,101961.86
2019-02-17T23:17:27.708Z,101963.59
2019-02-17T23:19:53.560Z,101971.05
2019-02-17T23:22:19.584Z,101960.13
2019-02-17T23:24:45.569Z,101959.66
2019-02-17T23:27:11.435Z,101957.92
2019-02-17T23:29:37.550Z,101953.98
2019-02-17T23:32:03.525Z,101954.88
2019-02-17T23:34:29.377Z,101948.30
2019-02-17T23:37:03.744Z,101943.91
2019-02-17T23:39:23.004Z,101943.91
2019-02-17T23:41:48.882Z,101946.10
2019-02-17T23:44:14.935Z,101937.80
2019-02-17T23:46:40.811Z,101934.28
2019-02-17T23:49:06.700Z,101934.71
2019-02-17T23:51:32.661Z,101930.34
2019-02-17T23:53:58.620Z,101925.98
2019-02-17T23:56:24.483Z,101927.72
2019-02-17T23:58:50.511Z,101917.22
